Terminal Aerodrome Forecast
Issued by NWS Corpus Christi, TX

Home | Current Version | Previous Version | Text Only | Print | Product List | Glossary On
Versions: 1 2 3 4 5 6 7 8 9 10 11 12 13
000
FTUS44 KCRP 290600 AAA
TAFVCT
TAF AMD
KVCT 290615Z 2906/3006 VRB03KT 3SM BR SKC
      TEMPO 2906/2908 1SM BR
     FM290800 20004KT 1SM BR SCT005 WS020/19035KT
      TEMPO 2909/2913 1/2SM FG BKN005
     FM291500 19014G18KT P6SM SCT025
     FM291900 17019G28KT P6SM SCT035
     FM300000 16013KT P6SM SCT030=

USA.gov is the U.S. government's official web portal to all federal, state and local government web resources and services.